Time;durP1;ratioP1;P1;durP2;ratioP2;P2;SDS_P1;SDS_P2;PMS_P1;PMS_P2;Temp;Humidity;BMP_temperature;BMP_pressure;BME280_temperature;BME280_humidity;BME280_pressure;Samples;Min_cycle;Max_cycle;Signal;HPM_P1;HPM_P2
2023/12/05 00:04:05;;;;;;;7.05;5.70;;;;;;;-1.79;100.00;97495.22;15284624;19;20018;-51
2023/12/05 00:09:30;;;;;;;6.95;5.53;;;;;;;-1.78;100.00;97481.91;15280181;19;20014;-51
2023/12/05 00:14:57;;;;;;;6.40;5.60;;;;;;;-1.78;100.00;97474.00;15278605;19;20058;-49
2023/12/05 00:20:22;;;;;;;7.00;5.53;;;;;;;-1.78;100.00;97470.50;15275589;19;20011;-50
2023/12/05 00:25:46;;;;;;;6.85;5.80;;;;;;;-1.78;100.00;97473.16;15278471;19;20093;-50
2023/12/05 00:31:14;;;;;;;6.55;5.75;;;;;;;-1.78;100.00;97473.16;15281697;19;20015;-52
2023/12/05 00:36:38;;;;;;;7.60;6.45;;;;;;;-1.80;100.00;97460.06;15280620;19;20395;-51
2023/12/05 00:42:03;;;;;;;13.65;10.27;;;;;;;-1.79;100.00;97459.09;15280083;19;20085;-53
2023/12/05 00:47:30;;;;;;;15.27;10.82;;;;;;;-1.80;100.00;97461.84;15024804;19;5001090;-53
2023/12/05 00:52:55;;;;;;;20.35;14.43;;;;;;;-1.81;100.00;97460.16;15276177;19;20081;-49
2023/12/05 00:58:20;;;;;;;16.27;11.50;;;;;;;-1.82;100.00;97463.75;15279945;19;20028;-50
2023/12/05 01:03:51;;;;;;;10.73;7.90;;;;;;;-1.87;100.00;97464.06;15278998;19;20019;-50
2023/12/05 01:09:14;;;;;;;7.88;6.90;;;;;;;-1.89;100.00;97453.63;15279007;19;20016;-50
2023/12/05 01:14:40;;;;;;;9.05;7.20;;;;;;;-1.91;100.00;97457.31;15279999;19;20024;-51
2023/12/05 01:20:11;;;;;;;8.65;7.07;;;;;;;-1.94;100.00;97466.28;15279392;19;20015;-50
2023/12/05 01:25:36;;;;;;;8.85;7.47;;;;;;;-1.96;100.00;97457.66;15274056;19;20011;-50
2023/12/05 01:31:01;;;;;;;8.32;7.10;;;;;;;-1.97;100.00;97461.25;15277248;19;20350;-53
2023/12/05 01:36:30;;;;;;;8.90;7.05;;;;;;;-1.97;100.00;97447.19;15279047;19;20474;-50
2023/12/05 01:41:54;;;;;;;8.85;7.10;;;;;;;-1.98;100.00;97443.72;15276633;19;20018;-53
2023/12/05 01:47:19;;;;;;;9.13;7.63;;;;;;;-2.02;100.00;97429.03;15287152;19;20020;-52
2023/12/05 01:52:49;;;;;;;10.73;8.27;;;;;;;-2.02;100.00;97426.38;15292307;19;20037;-53
2023/12/05 01:58:14;;;;;;;11.88;8.40;;;;;;;-2.04;100.00;97429.16;15289423;19;20031;-50
2023/12/05 02:03:49;;;;;;;9.25;7.38;;;;;;;-2.07;100.00;97423.25;15272459;19;20353;-47
2023/12/05 02:09:19;;;;;;;10.05;8.15;;;;;;;-2.09;100.00;97422.50;15293157;19;20058;-49
2023/12/05 02:14:43;;;;;;;11.52;8.80;;;;;;;-2.09;100.00;97419.88;15292226;19;20077;-50
2023/12/05 02:20:13;;;;;;;9.40;8.13;;;;;;;-2.08;100.00;97416.28;15290175;19;20404;-50
2023/12/05 02:25:55;;;;;;;9.02;7.53;;;;;;;-2.09;100.00;97404.03;15283756;19;20503;-50
2023/12/05 02:31:23;;;;;;;9.65;8.57;;;;;;;-2.09;100.00;97398.75;15288390;19;20020;-51
2023/12/05 02:36:58;;;;;;;9.88;8.60;;;;;;;-2.07;100.00;97399.50;15289047;19;20038;-57
2023/12/05 02:42:24;;;;;;;10.80;8.82;;;;;;;-2.05;100.00;97387.00;15287449;19;20070;-53
2023/12/05 02:47:54;;;;;;;10.10;8.35;;;;;;;-2.03;100.00;97393.03;15287081;19;20014;-50
2023/12/05 02:53:19;;;;;;;10.68;8.48;;;;;;;-2.00;100.00;97392.81;15284333;19;20019;-50
2023/12/05 02:58:44;;;;;;;10.93;8.57;;;;;;;-1.99;100.00;97376.03;15281899;19;20035;-51
2023/12/05 03:04:19;;;;;;;9.55;8.20;;;;;;;-1.96;100.00;97377.59;15283991;19;20010;-48
2023/12/05 03:09:46;;;;;;;9.20;7.97;;;;;;;-1.94;100.00;97384.44;15288523;19;20018;-52
2023/12/05 03:15:14;;;;;;;12.23;8.77;;;;;;;-1.93;100.00;97386.13;15288785;19;20074;-49
2023/12/05 03:20:41;;;;;;;10.50;8.70;;;;;;;-1.91;100.00;97392.16;15287093;19;20018;-54
2023/12/05 03:26:05;;;;;;;10.45;8.60;;;;;;;-1.88;100.00;97397.22;15286488;19;20345;-51
2023/12/05 03:31:36;;;;;;;9.52;8.15;;;;;;;-1.87;100.00;97393.66;15281505;19;20086;-49
2023/12/05 03:37:03;;;;;;;11.13;9.00;;;;;;;-1.83;100.00;97388.97;15285048;19;20443;-47
2023/12/05 03:42:29;;;;;;;10.77;8.88;;;;;;;-1.80;100.00;97387.91;15282267;19;20010;-49
2023/12/05 03:47:53;;;;;;;10.90;9.00;;;;;;;-1.79;100.00;97379.03;15281777;19;20022;-50
2023/12/05 03:53:20;;;;;;;10.70;8.85;;;;;;;-1.72;100.00;97383.78;15280538;19;20026;-52
2023/12/05 03:58:45;;;;;;;12.00;10.13;;;;;;;-1.69;100.00;97387.16;15280012;19;20018;-54
2023/12/05 04:04:17;;;;;;;10.63;8.77;;;;;;;-1.70;100.00;97383.66;15275407;19;20014;-50
2023/12/05 04:09:44;;;;;;;11.98;8.88;;;;;;;-1.69;100.00;97390.63;15276316;19;20018;-51
2023/12/05 04:15:10;;;;;;;13.15;10.02;;;;;;;-1.67;100.00;97383.44;15272205;19;20038;-50
2023/12/05 04:20:35;;;;;;;12.40;9.68;;;;;;;-1.62;100.00;97383.09;15273867;19;20019;-50
2023/12/05 04:26:02;;;;;;;11.75;9.48;;;;;;;-1.59;100.00;97380.25;15274124;19;20014;-56
2023/12/05 04:31:28;;;;;;;12.13;9.35;;;;;;;-1.58;100.00;97374.84;15280933;19;20014;-49
2023/12/05 04:36:53;;;;;;;11.27;9.52;;;;;;;-1.56;100.00;97375.59;15277382;19;20016;-51
2023/12/05 04:42:21;;;;;;;10.38;8.55;;;;;;;-1.51;100.00;97377.06;15280276;19;20011;-53
2023/12/05 04:47:46;;;;;;;12.05;8.65;;;;;;;-1.48;100.00;97376.84;15279939;19;20423;-51
2023/12/05 04:53:11;;;;;;;10.68;8.30;;;;;;;-1.46;100.00;97372.28;15279684;19;20010;-55
2023/12/05 04:58:39;;;;;;;11.00;8.90;;;;;;;-1.43;100.00;97379.97;15275458;19;20098;-50
2023/12/05 05:04:03;;;;;;;10.88;8.75;;;;;;;-1.40;100.00;97377.13;15272464;19;20022;-52
2023/12/05 05:09:28;;;;;;;11.32;9.05;;;;;;;-1.36;100.00;97378.59;15270407;19;20482;-50
2023/12/05 05:14:55;;;;;;;12.38;9.40;;;;;;;-1.31;100.00;97375.63;15277882;19;20021;-52
2023/12/05 05:20:20;;;;;;;10.85;8.63;;;;;;;-1.28;100.00;97378.88;15282256;19;20105;-54
2023/12/05 05:25:46;;;;;;;11.55;8.80;;;;;;;-1.23;100.00;97375.06;15293664;19;20093;-49
2023/12/05 05:31:13;;;;;;;10.00;8.70;;;;;;;-1.19;100.00;97379.13;15293370;19;20742;-50
2023/12/05 05:36:38;;;;;;;10.63;8.90;;;;;;;-1.16;100.00;97374.47;15294437;19;20468;-50
2023/12/05 05:42:03;;;;;;;10.30;8.63;;;;;;;-1.12;100.00;97373.28;15283295;19;20515;-53
2023/12/05 05:47:31;;;;;;;13.70;8.93;;;;;;;-1.06;100.00;97372.00;15290392;19;20062;-48
2023/12/05 05:52:59;;;;;;;10.73;8.70;;;;;;;-1.04;100.00;97375.38;15286554;19;20035;-48
2023/12/05 05:58:23;;;;;;;9.77;8.10;;;;;;;-1.00;100.00;97368.88;15280655;19;20436;-54
2023/12/05 06:03:51;;;;;;;9.57;8.15;;;;;;;-0.94;100.00;97379.00;15285241;19;20018;-50
2023/12/05 06:09:15;;;;;;;9.82;8.20;;;;;;;-0.91;100.00;97385.03;15286143;19;20017;-50
2023/12/05 06:14:40;;;;;;;10.25;8.80;;;;;;;-0.86;100.00;97382.88;15286199;19;20014;-51
2023/12/05 06:20:15;;;;;;;10.65;8.23;;;;;;;-0.83;100.00;97391.44;15288985;19;20024;-53
2023/12/05 06:25:40;;;;;;;10.52;8.68;;;;;;;-0.80;100.00;97393.81;15286464;19;20022;-51
2023/12/05 06:31:05;;;;;;;9.68;8.07;;;;;;;-0.77;100.00;97398.06;15285936;19;20014;-55
2023/12/05 06:36:32;;;;;;;9.35;7.72;;;;;;;-0.74;100.00;97389.03;15287618;19;20014;-51
2023/12/05 06:41:57;;;;;;;10.02;8.25;;;;;;;-0.69;100.00;97395.69;15278286;19;20343;-50
2023/12/05 06:47:21;;;;;;;10.15;7.97;;;;;;;-0.66;100.00;97397.25;15281333;19;20014;-48
2023/12/05 06:52:50;;;;;;;10.52;8.30;;;;;;;-0.63;100.00;97397.84;15282370;19;20034;-52
2023/12/05 06:58:18;;;;;;;9.88;7.80;;;;;;;-0.60;100.00;97409.16;15290964;19;20026;-48
2023/12/05 07:03:51;;;;;;;10.25;7.60;;;;;;;-0.57;100.00;97411.56;15269964;19;20021;-48
2023/12/05 07:09:18;;;;;;;10.75;7.88;;;;;;;-0.52;100.00;97407.63;15279635;19;20041;-50
2023/12/05 07:14:44;;;;;;;9.73;7.57;;;;;;;-0.48;100.00;97410.88;15285073;19;20043;-51
2023/12/05 07:20:11;;;;;;;9.38;7.47;;;;;;;-0.42;100.00;97412.22;15278355;19;20014;-54
2023/12/05 07:25:39;;;;;;;10.18;8.20;;;;;;;-0.37;100.00;97425.94;15284920;19;20024;-52
2023/12/05 07:31:03;;;;;;;9.65;7.30;;;;;;;-0.34;100.00;97425.69;15283401;19;20030;-51
2023/12/05 07:36:28;;;;;;;9.77;7.45;;;;;;;-0.31;100.00;97425.47;15284528;19;20086;-54
2023/12/05 07:41:55;;;;;;;9.70;7.47;;;;;;;-0.25;100.00;97434.72;15280170;19;20014;-51
2023/12/05 07:47:20;;;;;;;8.45;6.78;;;;;;;-0.19;100.00;97450.16;15283294;19;20018;-52
2023/12/05 07:52:44;;;;;;;9.43;7.30;;;;;;;-0.12;100.00;97437.28;15273764;19;20014;-57
2023/12/05 07:58:12;;;;;;;8.63;7.28;;;;;;;-0.03;100.00;97448.00;15283568;19;20007;-49
2023/12/05 08:03:36;;;;;;;8.88;7.45;;;;;;;0.07;100.00;97449.94;15285971;19;20011;-78
2023/12/05 08:09:01;;;;;;;8.77;7.40;;;;;;;0.13;100.00;97449.47;15319293;19;20014;-78
2023/12/05 08:14:29;;;;;;;8.73;7.00;;;;;;;0.18;100.00;97435.84;15312110;19;20437;-78
2023/12/05 08:19:54;;;;;;;8.77;7.25;;;;;;;0.21;100.00;97438.28;15305184;19;20014;-77
2023/12/05 08:25:18;;;;;;;7.28;6.57;;;;;;;0.23;100.00;97439.81;15295835;19;20042;-78
2023/12/05 08:30:46;;;;;;;7.85;6.95;;;;;;;0.29;100.00;97444.63;15302502;19;20018;-78
2023/12/05 08:36:12;;;;;;;8.02;7.05;;;;;;;0.36;100.00;97446.81;15305133;19;20022;-77
2023/12/05 08:41:36;;;;;;;8.05;7.13;;;;;;;0.44;100.00;97449.69;15296002;19;20487;-78
2023/12/05 08:47:04;;;;;;;8.55;6.97;;;;;;;0.57;100.00;97447.75;15291452;19;20016;-77
2023/12/05 08:52:29;;;;;;;9.10;7.60;;;;;;;0.75;100.00;97461.34;15286905;19;20543;-77
2023/12/05 08:57:55;;;;;;;7.38;6.65;;;;;;;0.95;100.00;97458.06;15294097;19;20024;-77
2023/12/05 09:03:30;;;;;;;8.35;6.60;;;;;;;1.15;100.00;97462.56;15296813;19;20014;-77
2023/12/05 09:08:54;;;;;;;8.18;7.00;;;;;;;1.34;100.00;97466.38;15298727;19;20422;-77
2023/12/05 09:14:19;;;;;;;7.40;6.47;;;;;;;1.49;100.00;97459.78;15296258;19;20445;-77
2023/12/05 09:19:46;;;;;;;7.18;6.22;;;;;;;1.66;100.00;97454.88;15301286;19;20017;-77
2023/12/05 09:25:12;;;;;;;8.18;6.43;;;;;;;1.90;100.00;97461.75;15288743;19;20027;-77
2023/12/05 09:30:36;;;;;;;7.43;6.28;;;;;;;2.15;100.00;97471.97;15295155;19;20337;-78
2023/12/05 09:36:04;;;;;;;6.97;6.10;;;;;;;2.23;100.00;97473.09;15302608;19;20018;-78
2023/12/05 09:41:30;;;;;;;7.72;6.60;;;;;;;2.31;100.00;97482.13;15291319;19;20422;-77
2023/12/05 09:47:01;;;;;;;7.00;6.10;;;;;;;2.34;100.00;97485.47;15284073;19;20018;-76
2023/12/05 09:52:29;;;;;;;7.25;6.13;;;;;;;2.34;100.00;97488.97;14769707;19;9999967;-78
2023/12/05 09:57:57;;;;;;;7.65;6.85;;;;;;;2.39;100.00;97499.19;15278978;19;20768;-76
2023/12/05 10:03:24;;;;;;;6.18;5.57;;;;;;;2.44;100.00;97508.47;15280967;19;20033;-78
2023/12/05 10:08:51;;;;;;;7.00;5.95;;;;;;;2.50;100.00;97514.22;15279995;19;20032;-75
2023/12/05 10:14:17;;;;;;;6.53;5.90;;;;;;;2.67;100.00;97510.94;15284359;19;20035;-78
2023/12/05 10:19:44;;;;;;;6.10;5.50;;;;;;;2.85;100.00;97511.16;15295081;19;20027;-74
2023/12/05 10:25:15;;;;;;;6.38;5.65;;;;;;;3.00;100.00;97508.94;15281273;19;20141;-79
2023/12/05 10:30:40;;;;;;;6.32;5.40;;;;;;;3.17;100.00;97501.28;15275378;19;20010;-78
2023/12/05 10:36:12;;;;;;;6.22;5.63;;;;;;;3.39;100.00;97494.88;15282205;19;20018;-75
2023/12/05 10:41:40;;;;;;;5.88;5.10;;;;;;;3.54;100.00;97489.97;15280576;19;20015;-77
2023/12/05 10:47:06;;;;;;;6.20;5.07;;;;;;;3.60;100.00;97489.41;15282971;19;20297;-75
2023/12/05 10:52:34;;;;;;;5.85;5.20;;;;;;;3.57;100.00;97497.69;15281730;19;20010;-77
2023/12/05 10:58:02;;;;;;;5.80;5.20;;;;;;;3.46;100.00;97503.16;15283732;19;20011;-77
2023/12/05 11:03:28;;;;;;;6.10;5.05;;;;;;;3.35;100.00;97506.78;15277583;19;20047;-77
2023/12/05 11:08:53;;;;;;;7.05;5.40;;;;;;;3.30;100.00;97512.53;15281800;19;20018;-77
2023/12/05 11:14:24;;;;;;;6.10;5.30;;;;;;;3.26;100.00;97512.94;15279073;19;20086;-76
2023/12/05 11:20:09;;;;;;;6.38;5.25;;;;;;;3.20;100.00;97506.34;15286726;19;20017;-77
2023/12/05 11:25:51;;;;;;;6.47;5.55;;;;;;;3.14;100.00;97514.84;15279717;19;20011;-76
2023/12/05 11:31:29;;;;;;;6.97;5.20;;;;;;;3.02;100.00;97514.16;15284599;19;20014;-79
2023/12/05 11:37:06;;;;;;;6.20;5.30;;;;;;;2.98;100.00;97518.03;15287283;19;20826;-78
2023/12/05 11:42:34;;;;;;;5.82;5.20;;;;;;;2.91;100.00;97520.41;15287087;19;20815;-79
2023/12/05 11:48:01;;;;;;;6.05;5.18;;;;;;;2.90;100.00;97522.22;15281167;19;20031;-77
2023/12/05 11:53:30;;;;;;;5.50;5.00;;;;;;;2.90;100.00;97535.53;15281590;19;20806;-77
2023/12/05 11:58:55;;;;;;;5.30;4.80;;;;;;;2.91;100.00;97536.38;15289909;19;20026;-75
2023/12/05 12:04:25;;;;;;;5.78;5.22;;;;;;;2.94;100.00;97528.13;15282120;19;20070;-77
2023/12/05 12:09:50;;;;;;;6.80;5.70;;;;;;;2.95;100.00;97518.31;15267795;19;20018;-75
2023/12/05 12:15:15;;;;;;;5.88;5.20;;;;;;;3.01;100.00;97531.91;15267792;19;20013;-77
2023/12/05 12:20:43;;;;;;;5.57;5.07;;;;;;;3.08;100.00;97527.75;15278696;19;20027;-77
2023/12/05 12:26:12;;;;;;;6.22;5.63;;;;;;;3.14;100.00;97525.50;15271230;19;20026;-78
2023/12/05 12:31:40;;;;;;;6.78;5.15;;;;;;;3.20;100.00;97525.81;15270792;19;20010;-77
2023/12/05 12:37:08;;;;;;;5.60;5.07;;;;;;;3.25;100.00;97533.38;15269740;19;20082;-75
2023/12/05 12:42:40;;;;;;;6.15;5.20;;;;;;;3.32;100.00;97539.84;15266797;19;20580;-77
2023/12/05 12:48:06;;;;;;;5.70;5.10;;;;;;;3.44;100.00;97542.38;15279012;19;20025;-78
2023/12/05 12:53:33;;;;;;;5.90;4.70;;;;;;;3.56;100.00;97525.31;15276421;19;20014;-77
2023/12/05 12:59:01;;;;;;;5.60;5.03;;;;;;;3.61;100.00;97525.72;15286570;19;20011;-79
2023/12/05 13:04:41;;;;;;;5.05;4.55;;;;;;;3.67;100.00;97518.97;15291875;19;20014;-78
2023/12/05 13:10:09;;;;;;;5.82;4.45;;;;;;;3.69;100.00;97515.22;15282233;19;20019;-78
2023/12/05 13:15:36;;;;;;;5.13;4.63;;;;;;;3.70;100.00;97516.88;15281935;19;20022;-79
2023/12/05 13:21:02;;;;;;;5.70;4.85;;;;;;;3.89;100.00;97520.53;15325051;19;20026;-77
2023/12/05 13:26:31;;;;;;;4.85;4.43;;;;;;;4.06;100.00;97510.97;15332594;19;20018;-79
2023/12/05 13:31:56;;;;;;;4.13;3.72;;;;;;;4.14;100.00;97516.44;15327819;19;20035;-76
2023/12/05 13:37:20;;;;;;;4.40;4.00;;;;;;;4.08;100.00;97508.16;15292104;19;20042;-80
2023/12/05 13:42:47;;;;;;;4.53;4.13;;;;;;;4.23;100.00;97514.72;15296526;19;20010;-80
2023/12/05 13:48:13;;;;;;;4.90;4.18;;;;;;;4.30;100.00;97529.16;15295996;19;20032;-79
2023/12/05 13:53:39;;;;;;;4.50;4.10;;;;;;;4.32;100.00;97521.88;15292874;19;20082;-78
2023/12/05 13:59:08;;;;;;;5.35;4.18;;;;;;;4.31;100.00;97520.19;15298737;19;20038;-79
2023/12/05 14:04:39;;;;;;;4.85;4.10;;;;;;;4.04;100.00;97520.09;15289662;19;20026;-78
2023/12/05 14:10:04;;;;;;;4.07;3.67;;;;;;;3.81;100.00;97539.88;15296883;19;20482;-77
2023/12/05 14:15:32;;;;;;;4.63;4.03;;;;;;;3.74;100.00;97554.75;15293189;19;20097;-76
2023/12/05 14:20:58;;;;;;;4.57;4.10;;;;;;;3.65;100.00;97567.09;15293146;19;20006;-78
2023/12/05 14:26:24;;;;;;;5.13;4.00;;;;;;;3.58;100.00;97576.63;15290121;19;20025;-77
2023/12/05 14:31:52;;;;;;;4.30;3.83;;;;;;;3.59;100.00;97583.59;15282454;19;20015;-76
2023/12/05 14:37:18;;;;;;;4.85;4.18;;;;;;;3.69;100.00;97584.47;15284989;19;20257;-76
2023/12/05 14:42:44;;;;;;;5.00;4.50;;;;;;;3.60;100.00;97571.13;15284195;19;20024;-75
2023/12/05 14:48:13;;;;;;;6.20;4.45;;;;;;;3.46;100.00;97577.72;15285915;19;20074;-77
2023/12/05 14:53:38;;;;;;;5.03;4.53;;;;;;;3.31;100.00;97583.41;15278784;19;20066;-76
2023/12/05 14:59:03;;;;;;;5.18;4.68;;;;;;;3.16;100.00;97590.09;15279954;19;20021;-76
2023/12/05 15:04:37;;;;;;;5.63;5.07;;;;;;;3.04;100.00;97600.00;15272416;19;20495;-77
2023/12/05 15:10:03;;;;;;;5.35;4.85;;;;;;;2.96;100.00;97608.66;15275621;19;20026;-77
2023/12/05 15:15:27;;;;;;;6.65;4.82;;;;;;;2.91;100.00;97610.84;15272345;19;20090;-77
2023/12/05 15:20:54;;;;;;;6.20;5.20;;;;;;;2.84;100.00;97623.84;15271225;19;20375;-76
2023/12/05 15:26:23;;;;;;;5.55;4.88;;;;;;;2.79;100.00;97628.72;15275283;19;20022;-77
2023/12/05 15:31:48;;;;;;;6.18;5.25;;;;;;;2.69;100.00;97626.00;15277458;19;20018;-77
2023/12/05 15:37:15;;;;;;;7.15;5.45;;;;;;;2.66;100.00;97622.78;15278489;19;20085;-77
2023/12/05 15:42:44;;;;;;;6.40;5.00;;;;;;;2.60;100.00;97635.59;15274868;19;20082;-76
2023/12/05 15:48:09;;;;;;;9.63;7.20;;;;;;;2.58;100.00;97636.72;15279717;19;20033;-78
2023/12/05 15:53:56;;;;;;;6.70;5.90;;;;;;;2.54;100.00;97653.91;15269257;19;20014;-77
2023/12/05 15:59:22;;;;;;;7.00;6.03;;;;;;;2.49;100.00;97654.28;15279227;19;20523;-76
2023/12/05 16:04:53;;;;;;;9.65;6.00;;;;;;;2.45;100.00;97658.19;15270087;19;20026;-77
2023/12/05 16:10:20;;;;;;;6.50;5.72;;;;;;;2.40;100.00;97666.56;15270111;19;20412;-77
2023/12/05 16:15:45;;;;;;;7.40;6.35;;;;;;;2.37;100.00;97671.25;15271045;19;20018;-77
2023/12/05 16:21:10;;;;;;;8.00;6.30;;;;;;;2.36;100.00;97675.75;15272937;19;20014;-77
2023/12/05 16:26:37;;;;;;;9.43;6.72;;;;;;;2.35;100.00;97673.22;15269391;19;20547;-79
2023/12/05 16:32:02;;;;;;;7.88;6.93;;;;;;;2.33;100.00;97667.19;15266479;19;20018;-80
2023/12/05 16:37:28;;;;;;;8.05;6.60;;;;;;;2.33;100.00;97675.16;15266745;19;20018;-78
2023/12/05 16:42:55;;;;;;;7.88;6.93;;;;;;;2.34;100.00;97666.22;15275028;19;20576;-81
2023/12/05 16:48:20;;;;;;;8.27;7.28;;;;;;;2.34;100.00;97669.72;15268583;19;20007;-79
2023/12/05 16:53:45;;;;;;;8.43;7.45;;;;;;;2.32;100.00;97676.97;15266582;19;20570;-80
2023/12/05 16:59:12;;;;;;;10.43;7.63;;;;;;;2.32;100.00;97671.66;15264986;19;20085;-75
2023/12/05 17:04:49;;;;;;;9.13;7.50;;;;;;;2.28;100.00;97689.66;15265911;19;20010;-74
2023/12/05 17:10:15;;;;;;;8.38;7.35;;;;;;;2.29;100.00;97686.03;15268859;19;20018;-74
2023/12/05 17:15:42;;;;;;;8.38;7.53;;;;;;;2.28;100.00;97675.56;15245627;19;20014;-76
2023/12/05 17:21:07;;;;;;;8.95;7.10;;;;;;;2.25;100.00;97678.47;15283738;19;20534;-76
2023/12/05 17:26:33;;;;;;;8.52;7.60;;;;;;;2.21;100.00;97680.53;15281872;19;20026;-76
2023/12/05 17:32:00;;;;;;;9.18;7.63;;;;;;;2.21;100.00;97675.22;15277399;19;20014;-77
2023/12/05 17:37:26;;;;;;;9.18;7.80;;;;;;;2.19;100.00;97676.28;15293049;19;20003;-77
2023/12/05 17:42:50;;;;;;;10.10;8.40;;;;;;;2.16;100.00;97688.03;15291243;19;20017;-77
2023/12/05 17:48:17;;;;;;;8.82;7.85;;;;;;;2.19;100.00;97690.44;15296670;19;20019;-76
2023/12/05 17:53:42;;;;;;;10.07;8.02;;;;;;;2.18;100.00;97695.84;15288656;19;20014;-77
2023/12/05 17:59:08;;;;;;;8.88;7.90;;;;;;;2.19;100.00;97689.56;15293878;19;20090;-77
2023/12/05 18:04:35;;;;;;;12.32;8.55;;;;;;;2.18;100.00;97694.06;15288349;19;20010;-78
2023/12/05 18:10:01;;;;;;;11.25;8.48;;;;;;;2.18;100.00;97696.72;15289800;19;20078;-80
2023/12/05 18:15:25;;;;;;;13.02;8.90;;;;;;;2.17;100.00;97699.53;15290944;19;20023;-78
2023/12/05 18:20:53;;;;;;;10.93;9.27;;;;;;;2.19;100.00;97692.25;15295753;19;20022;-77
2023/12/05 18:26:21;;;;;;;11.13;9.23;;;;;;;2.20;100.00;97699.25;15293346;19;20059;-79
2023/12/05 18:31:46;;;;;;;10.50;8.70;;;;;;;2.21;100.00;97692.97;15290491;19;20436;-76
2023/12/05 18:37:14;;;;;;;10.73;9.20;;;;;;;2.21;100.00;97699.13;15291890;19;20022;-79
2023/12/05 18:42:39;;;;;;;10.52;8.82;;;;;;;2.22;100.00;97705.28;15290704;19;20018;-79
2023/12/05 18:48:04;;;;;;;10.15;8.65;;;;;;;2.23;100.00;97706.97;15289972;19;20019;-79
2023/12/05 18:53:31;;;;;;;11.45;8.88;;;;;;;2.23;100.00;97712.28;15286951;19;20464;-79
2023/12/05 18:58:57;;;;;;;11.32;9.27;;;;;;;2.23;100.00;97722.91;15289548;19;20336;-78
2023/12/05 19:04:22;;;;;;;10.82;9.55;;;;;;;2.24;100.00;97729.91;15282612;19;20006;-77
2023/12/05 19:09:52;;;;;;;10.57;9.40;;;;;;;2.23;100.00;97722.91;15283854;19;20025;-77
2023/12/05 19:15:17;;;;;;;10.32;8.50;;;;;;;2.26;100.00;97728.00;15284197;19;20017;-79
2023/12/05 19:20:42;;;;;;;10.90;8.90;;;;;;;2.25;100.00;97726.28;15285832;19;20674;-79
2023/12/05 19:26:10;;;;;;;10.73;8.73;;;;;;;2.21;100.00;97723.06;15284080;19;20019;-78
2023/12/05 19:31:37;;;;;;;11.57;9.80;;;;;;;2.20;100.00;97726.69;15280241;19;20514;-82
2023/12/05 19:37:04;;;;;;;10.77;9.13;;;;;;;2.20;100.00;97739.09;15272919;19;20021;-78
2023/12/05 19:42:32;;;;;;;11.10;9.45;;;;;;;2.21;100.00;97730.16;15273419;19;20021;-78
2023/12/05 19:47:57;;;;;;;11.07;9.32;;;;;;;2.21;100.00;97732.81;15282897;19;20020;-79
2023/12/05 19:53:21;;;;;;;10.98;9.18;;;;;;;2.22;100.00;97740.69;15272381;19;20501;-80
2023/12/05 19:58:50;;;;;;;9.95;8.55;;;;;;;2.21;100.00;97738.13;15272776;19;20018;-77
2023/12/05 20:04:15;;;;;;;10.65;9.55;;;;;;;2.22;100.00;97745.16;15280908;19;20070;-80
2023/12/05 20:09:43;;;;;;;10.00;8.90;;;;;;;2.21;100.00;97741.66;15276125;19;20021;-76
2023/12/05 20:15:13;;;;;;;10.23;9.13;;;;;;;2.24;100.00;97746.69;15266694;19;20044;-78
2023/12/05 20:20:38;;;;;;;11.07;8.95;;;;;;;2.24;100.00;97741.38;15277521;19;20017;-79
2023/12/05 20:26:02;;;;;;;10.35;9.23;;;;;;;2.22;100.00;97739.81;15276018;19;20060;-80
2023/12/05 20:31:30;;;;;;;10.38;9.32;;;;;;;2.22;100.00;97742.47;15276380;19;20021;-79
2023/12/05 20:36:55;;;;;;;9.98;8.85;;;;;;;2.20;100.00;97737.31;15284100;19;20090;-78
2023/12/05 20:42:24;;;;;;;10.38;9.35;;;;;;;2.19;100.00;97742.72;15285952;19;20007;-79
2023/12/05 20:47:53;;;;;;;10.02;9.02;;;;;;;2.18;100.00;97741.03;15281812;19;20011;-76
2023/12/05 20:53:19;;;;;;;10.30;9.07;;;;;;;2.21;100.00;97746.09;15285901;19;20031;-79
2023/12/05 20:58:43;;;;;;;10.57;9.27;;;;;;;2.19;100.00;97743.59;15292817;19;20010;-79
2023/12/05 21:04:10;;;;;;;10.95;9.63;;;;;;;2.17;100.00;97736.72;15285754;19;20051;-78
2023/12/05 21:09:35;;;;;;;11.35;10.15;;;;;;;2.17;100.00;97734.88;15284575;19;20017;-79
2023/12/05 21:15:01;;;;;;;11.68;9.75;;;;;;;2.18;100.00;97735.72;15281205;19;20375;-75
2023/12/05 21:20:28;;;;;;;11.48;10.20;;;;;;;2.15;100.00;97726.19;15287261;19;20098;-79
2023/12/05 21:25:53;;;;;;;11.25;9.95;;;;;;;2.13;100.00;97722.81;15286232;19;20082;-80
2023/12/05 21:31:18;;;;;;;11.05;9.95;;;;;;;2.09;100.00;97732.84;15280669;19;20015;-80
2023/12/05 21:36:46;;;;;;;11.85;10.65;;;;;;;2.08;100.00;97741.78;15273084;19;20021;-78
2023/12/05 21:42:11;;;;;;;12.70;10.80;;;;;;;2.05;100.00;97742.06;15266974;19;20101;-78
2023/12/05 21:47:37;;;;;;;12.13;10.60;;;;;;;2.03;100.00;97748.44;15273907;19;20010;-78
2023/12/05 21:53:04;;;;;;;12.90;10.40;;;;;;;2.05;100.00;97750.03;15275742;19;20014;-76
2023/12/05 21:58:30;;;;;;;11.70;10.50;;;;;;;2.05;100.00;97750.03;15283119;19;20011;-79
2023/12/05 22:03:55;;;;;;;11.27;9.98;;;;;;;2.08;100.00;97763.03;15293558;19;20014;-80
2023/12/05 22:09:24;;;;;;;11.93;10.73;;;;;;;2.09;100.00;97755.94;15301257;19;20082;-80
2023/12/05 22:14:49;;;;;;;11.55;10.15;;;;;;;2.08;100.00;97751.59;15298181;19;20011;-78
2023/12/05 22:20:14;;;;;;;11.80;10.60;;;;;;;2.08;100.00;97754.25;15291497;19;20027;-78
2023/12/05 22:25:41;;;;;;;10.93;9.77;;;;;;;2.08;100.00;97760.38;15281299;19;20070;-78
2023/12/05 22:31:10;;;;;;;10.63;9.45;;;;;;;2.06;100.00;97764.97;15285719;19;20010;-79
2023/12/05 22:36:35;;;;;;;10.98;9.32;;;;;;;2.06;100.00;97772.94;15285846;19;20369;-77
2023/12/05 22:42:02;;;;;;;10.48;9.45;;;;;;;2.07;100.00;97779.13;15283909;19;20033;-77
2023/12/05 22:47:29;;;;;;;10.60;9.02;;;;;;;2.05;100.00;97776.59;15285448;19;20029;-77
2023/12/05 22:52:55;;;;;;;10.50;9.40;;;;;;;2.06;100.00;97775.59;15277048;19;20498;-77
2023/12/05 22:58:22;;;;;;;9.73;8.65;;;;;;;2.07;100.00;97787.94;15284517;19;20098;-77
2023/12/05 23:03:48;;;;;;;9.93;8.57;;;;;;;2.09;100.00;97780.69;15278324;19;20486;-77
2023/12/05 23:09:12;;;;;;;10.63;9.27;;;;;;;2.12;100.00;97780.44;15281513;19;20024;-79
2023/12/05 23:14:39;;;;;;;9.38;8.48;;;;;;;2.12;100.00;97767.16;15276500;19;20092;-78
2023/12/05 23:20:04;;;;;;;8.57;7.70;;;;;;;2.14;100.00;97772.34;15281493;19;20051;-78
2023/12/05 23:25:30;;;;;;;9.18;7.75;;;;;;;2.13;100.00;97763.53;15267027;19;20007;-78
2023/12/05 23:30:57;;;;;;;8.60;7.70;;;;;;;2.14;100.00;97761.69;15285034;19;20602;-79
2023/12/05 23:36:23;;;;;;;9.70;7.82;;;;;;;2.15;100.00;97761.59;15285083;19;20010;-79
2023/12/05 23:41:47;;;;;;;8.45;7.65;;;;;;;2.15;100.00;97766.91;15282259;19;20037;-79
2023/12/05 23:47:16;;;;;;;8.43;7.60;;;;;;;2.17;100.00;97771.25;15281377;19;20681;-79
2023/12/05 23:52:42;;;;;;;8.43;7.53;;;;;;;2.17;100.00;97765.94;15278866;19;20023;-78
2023/12/05 23:58:07;;;;;;;8.05;7.25;;;;;;;2.16;100.00;97759.78;15273866;19;20046;-78
